sensor_id;sensor_type;location;lat;lon;timestamp;temperature;humidity
5392;DHT22;2719;53.624;9.786;2023-01-29T00:01:10;3.70;99.90
5392;DHT22;2719;53.624;9.786;2023-01-29T00:03:37;3.70;99.90
5392;DHT22;2719;53.624;9.786;2023-01-29T00:06:06;3.70;99.90
5392;DHT22;2719;53.624;9.786;2023-01-29T00:08:33;3.70;99.90
5392;DHT22;2719;53.624;9.786;2023-01-29T00:11:00;3.70;99.90
5392;DHT22;2719;53.624;9.786;2023-01-29T00:13:27;3.80;99.90
5392;DHT22;2719;53.624;9.786;2023-01-29T00:15:54;3.80;99.90
5392;DHT22;2719;53.624;9.786;2023-01-29T00:18:22;3.90;99.90
5392;DHT22;2719;53.624;9.786;2023-01-29T00:20:48;3.90;99.90
5392;DHT22;2719;53.624;9.786;2023-01-29T00:23:15;3.90;99.90
5392;DHT22;2719;53.624;9.786;2023-01-29T00:25:42;3.90;99.90
5392;DHT22;2719;53.624;9.786;2023-01-29T00:28:09;3.90;99.90
5392;DHT22;2719;53.624;9.786;2023-01-29T00:30:36;3.80;99.90
5392;DHT22;2719;53.624;9.786;2023-01-29T00:33:03;3.90;99.90
5392;DHT22;2719;53.624;9.786;2023-01-29T00:35:32;3.90;99.90
5392;DHT22;2719;53.624;9.786;2023-01-29T00:37:59;3.90;99.90
5392;DHT22;2719;53.624;9.786;2023-01-29T00:40:26;3.80;99.90
5392;DHT22;2719;53.624;9.786;2023-01-29T00:42:52;3.80;99.90
5392;DHT22;2719;53.624;9.786;2023-01-29T00:45:37;3.80;99.90
5392;DHT22;2719;53.624;9.786;2023-01-29T00:48:04;3.90;99.90
5392;DHT22;2719;53.624;9.786;2023-01-29T00:50:32;3.90;99.90
5392;DHT22;2719;53.624;9.786;2023-01-29T00:52:58;3.80;99.90
5392;DHT22;2719;53.624;9.786;2023-01-29T00:55:25;3.90;99.90
5392;DHT22;2719;53.624;9.786;2023-01-29T00:57:52;3.90;99.90
5392;DHT22;2719;53.624;9.786;2023-01-29T01:00:19;3.80;99.90
5392;DHT22;2719;53.624;9.786;2023-01-29T01:02:46;3.80;99.90
5392;DHT22;2719;53.624;9.786;2023-01-29T01:05:31;3.80;99.90
5392;DHT22;2719;53.624;9.786;2023-01-29T01:07:58;3.80;99.90
5392;DHT22;2719;53.624;9.786;2023-01-29T01:10:27;3.80;99.90
5392;DHT22;2719;53.624;9.786;2023-01-29T01:12:55;3.80;99.90
5392;DHT22;2719;53.624;9.786;2023-01-29T01:15:24;3.80;99.90
5392;DHT22;2719;53.624;9.786;2023-01-29T01:17:52;3.80;99.90
5392;DHT22;2719;53.624;9.786;2023-01-29T01:20:19;3.80;99.90
5392;DHT22;2719;53.624;9.786;2023-01-29T01:22:47;3.80;99.90
5392;DHT22;2719;53.624;9.786;2023-01-29T01:25:13;3.80;99.90
5392;DHT22;2719;53.624;9.786;2023-01-29T01:27:40;3.80;99.90
5392;DHT22;2719;53.624;9.786;2023-01-29T01:30:09;3.80;99.90
5392;DHT22;2719;53.624;9.786;2023-01-29T01:32:38;3.80;99.90
5392;DHT22;2719;53.624;9.786;2023-01-29T01:35:05;3.70;99.90
5392;DHT22;2719;53.624;9.786;2023-01-29T01:37:32;3.80;99.90
5392;DHT22;2719;53.624;9.786;2023-01-29T01:40:03;3.90;99.90
5392;DHT22;2719;53.624;9.786;2023-01-29T01:42:30;3.90;99.90
5392;DHT22;2719;53.624;9.786;2023-01-29T01:44:59;3.90;99.90
5392;DHT22;2719;53.624;9.786;2023-01-29T01:47:36;3.80;99.90
5392;DHT22;2719;53.624;9.786;2023-01-29T01:50:07;3.90;99.90
5392;DHT22;2719;53.624;9.786;2023-01-29T01:52:38;3.90;99.90
5392;DHT22;2719;53.624;9.786;2023-01-29T01:55:11;3.90;99.90
5392;DHT22;2719;53.624;9.786;2023-01-29T01:57:39;3.90;99.90
5392;DHT22;2719;53.624;9.786;2023-01-29T02:00:12;3.90;99.90
5392;DHT22;2719;53.624;9.786;2023-01-29T02:02:42;3.90;99.90
5392;DHT22;2719;53.624;9.786;2023-01-29T02:05:28;3.90;99.90
5392;DHT22;2719;53.624;9.786;2023-01-29T02:08:14;4.00;99.90
5392;DHT22;2719;53.624;9.786;2023-01-29T02:11:00;3.90;99.90
5392;DHT22;2719;53.624;9.786;2023-01-29T02:13:26;3.90;99.90
5392;DHT22;2719;53.624;9.786;2023-01-29T02:15:53;3.80;99.90
5392;DHT22;2719;53.624;9.786;2023-01-29T02:18:20;3.80;99.90
5392;DHT22;2719;53.624;9.786;2023-01-29T02:20:55;3.70;99.90
5392;DHT22;2719;53.624;9.786;2023-01-29T02:24:09;3.80;99.90
5392;DHT22;2719;53.624;9.786;2023-01-29T02:26:57;3.80;99.90
5392;DHT22;2719;53.624;9.786;2023-01-29T02:29:34;3.90;99.90
5392;DHT22;2719;53.624;9.786;2023-01-29T02:32:12;3.80;99.90
5392;DHT22;2719;53.624;9.786;2023-01-29T02:34:47;3.90;99.90
5392;DHT22;2719;53.624;9.786;2023-01-29T02:37:38;3.90;99.90
5392;DHT22;2719;53.624;9.786;2023-01-29T02:40:11;3.70;99.90
5392;DHT22;2719;53.624;9.786;2023-01-29T02:42:46;3.70;99.90
5392;DHT22;2719;53.624;9.786;2023-01-29T02:45:18;3.70;99.90
5392;DHT22;2719;53.624;9.786;2023-01-29T02:47:53;3.80;99.90
5392;DHT22;2719;53.624;9.786;2023-01-29T02:50:27;3.90;99.90
5392;DHT22;2719;53.624;9.786;2023-01-29T02:53:00;3.90;99.90
5392;DHT22;2719;53.624;9.786;2023-01-29T02:55:31;3.90;99.90
5392;DHT22;2719;53.624;9.786;2023-01-29T02:58:04;3.90;99.90
5392;DHT22;2719;53.624;9.786;2023-01-29T03:00:36;3.90;99.90
5392;DHT22;2719;53.624;9.786;2023-01-29T03:03:07;3.80;99.90
5392;DHT22;2719;53.624;9.786;2023-01-29T03:05:42;4.00;99.90
5392;DHT22;2719;53.624;9.786;2023-01-29T03:08:22;4.00;99.90
5392;DHT22;2719;53.624;9.786;2023-01-29T03:11:03;4.00;99.90
5392;DHT22;2719;53.624;9.786;2023-01-29T03:13:34;4.00;99.90
5392;DHT22;2719;53.624;9.786;2023-01-29T03:16:06;3.90;99.90
5392;DHT22;2719;53.624;9.786;2023-01-29T03:18:37;4.00;99.90
5392;DHT22;2719;53.624;9.786;2023-01-29T03:21:13;3.90;99.90
5392;DHT22;2719;53.624;9.786;2023-01-29T03:23:59;3.90;99.90
5392;DHT22;2719;53.624;9.786;2023-01-29T03:26:43;3.80;99.90
5392;DHT22;2719;53.624;9.786;2023-01-29T03:29:29;3.80;99.90
5392;DHT22;2719;53.624;9.786;2023-01-29T03:32:16;3.80;99.90
5392;DHT22;2719;53.624;9.786;2023-01-29T03:34:46;3.70;99.90
5392;DHT22;2719;53.624;9.786;2023-01-29T03:37:19;3.80;99.90
5392;DHT22;2719;53.624;9.786;2023-01-29T03:39:48;3.90;99.90
5392;DHT22;2719;53.624;9.786;2023-01-29T03:42:19;3.90;99.90
5392;DHT22;2719;53.624;9.786;2023-01-29T03:44:56;3.90;99.90
5392;DHT22;2719;53.624;9.786;2023-01-29T03:47:34;3.90;99.90
5392;DHT22;2719;53.624;9.786;2023-01-29T03:50:08;3.90;99.90
5392;DHT22;2719;53.624;9.786;2023-01-29T03:52:41;3.90;99.90
5392;DHT22;2719;53.624;9.786;2023-01-29T03:55:14;3.90;99.90
5392;DHT22;2719;53.624;9.786;2023-01-29T03:57:48;3.80;99.90
5392;DHT22;2719;53.624;9.786;2023-01-29T04:00:17;3.70;99.90
5392;DHT22;2719;53.624;9.786;2023-01-29T04:02:51;3.70;99.90
5392;DHT22;2719;53.624;9.786;2023-01-29T04:05:24;3.80;99.90
5392;DHT22;2719;53.624;9.786;2023-01-29T04:07:55;3.80;99.90
5392;DHT22;2719;53.624;9.786;2023-01-29T04:10:26;3.90;99.90
5392;DHT22;2719;53.624;9.786;2023-01-29T04:12:57;4.00;99.90
5392;DHT22;2719;53.624;9.786;2023-01-29T04:15:28;3.90;99.90
5392;DHT22;2719;53.624;9.786;2023-01-29T04:17:57;3.90;99.90
5392;DHT22;2719;53.624;9.786;2023-01-29T04:20:24;3.80;99.90
5392;DHT22;2719;53.624;9.786;2023-01-29T04:22:52;3.90;99.90
5392;DHT22;2719;53.624;9.786;2023-01-29T04:25:21;3.90;99.90
5392;DHT22;2719;53.624;9.786;2023-01-29T04:27:56;3.90;99.90
5392;DHT22;2719;53.624;9.786;2023-01-29T04:30:34;3.90;99.90
5392;DHT22;2719;53.624;9.786;2023-01-29T04:33:12;3.90;99.90
5392;DHT22;2719;53.624;9.786;2023-01-29T04:35:55;3.90;99.90
5392;DHT22;2719;53.624;9.786;2023-01-29T04:38:33;3.90;99.90
5392;DHT22;2719;53.624;9.786;2023-01-29T04:41:06;3.90;99.90
5392;DHT22;2719;53.624;9.786;2023-01-29T04:43:40;3.90;99.90
5392;DHT22;2719;53.624;9.786;2023-01-29T04:46:14;3.90;99.90
5392;DHT22;2719;53.624;9.786;2023-01-29T04:48:54;3.90;99.90
5392;DHT22;2719;53.624;9.786;2023-01-29T04:51:33;3.90;99.90
5392;DHT22;2719;53.624;9.786;2023-01-29T04:54:07;3.90;99.90
5392;DHT22;2719;53.624;9.786;2023-01-29T04:56:40;3.90;99.90
5392;DHT22;2719;53.624;9.786;2023-01-29T04:59:11;3.90;99.90
5392;DHT22;2719;53.624;9.786;2023-01-29T05:01:41;3.80;99.90
5392;DHT22;2719;53.624;9.786;2023-01-29T05:04:12;3.90;99.90
5392;DHT22;2719;53.624;9.786;2023-01-29T05:06:40;4.00;99.90
5392;DHT22;2719;53.624;9.786;2023-01-29T05:09:08;3.90;99.90
5392;DHT22;2719;53.624;9.786;2023-01-29T05:11:35;3.90;99.90
5392;DHT22;2719;53.624;9.786;2023-01-29T05:14:04;3.90;99.90
5392;DHT22;2719;53.624;9.786;2023-01-29T05:16:36;3.90;99.90
5392;DHT22;2719;53.624;9.786;2023-01-29T05:19:06;3.90;99.90
5392;DHT22;2719;53.624;9.786;2023-01-29T05:21:35;3.90;99.90
5392;DHT22;2719;53.624;9.786;2023-01-29T05:24:07;3.90;99.90
5392;DHT22;2719;53.624;9.786;2023-01-29T05:26:34;4.00;99.90
5392;DHT22;2719;53.624;9.786;2023-01-29T05:29:19;4.00;99.90
5392;DHT22;2719;53.624;9.786;2023-01-29T05:31:46;4.00;99.90
5392;DHT22;2719;53.624;9.786;2023-01-29T05:34:12;3.90;99.90
5392;DHT22;2719;53.624;9.786;2023-01-29T05:36:40;3.90;99.90
5392;DHT22;2719;53.624;9.786;2023-01-29T05:39:07;3.90;99.90
5392;DHT22;2719;53.624;9.786;2023-01-29T05:41:33;3.90;99.90
5392;DHT22;2719;53.624;9.786;2023-01-29T05:44:00;3.90;99.90
5392;DHT22;2719;53.624;9.786;2023-01-29T05:46:27;3.90;99.90
5392;DHT22;2719;53.624;9.786;2023-01-29T05:48:53;4.00;99.90
5392;DHT22;2719;53.624;9.786;2023-01-29T05:51:20;4.00;99.90
5392;DHT22;2719;53.624;9.786;2023-01-29T05:53:48;4.00;99.90
5392;DHT22;2719;53.624;9.786;2023-01-29T05:56:15;4.00;99.90
5392;DHT22;2719;53.624;9.786;2023-01-29T05:58:41;4.00;99.90
5392;DHT22;2719;53.624;9.786;2023-01-29T06:01:09;4.10;99.90
5392;DHT22;2719;53.624;9.786;2023-01-29T06:03:37;4.20;99.90
5392;DHT22;2719;53.624;9.786;2023-01-29T06:06:04;4.10;99.90
5392;DHT22;2719;53.624;9.786;2023-01-29T06:08:30;4.10;99.90
5392;DHT22;2719;53.624;9.786;2023-01-29T06:10:58;4.10;99.90
5392;DHT22;2719;53.624;9.786;2023-01-29T06:13:25;4.20;99.90
5392;DHT22;2719;53.624;9.786;2023-01-29T06:15:51;4.10;99.90
5392;DHT22;2719;53.624;9.786;2023-01-29T06:18:18;4.10;99.90
5392;DHT22;2719;53.624;9.786;2023-01-29T06:20:44;4.10;99.90
5392;DHT22;2719;53.624;9.786;2023-01-29T06:23:11;4.10;99.90
5392;DHT22;2719;53.624;9.786;2023-01-29T06:25:38;4.20;99.90
5392;DHT22;2719;53.624;9.786;2023-01-29T06:28:06;4.20;99.90
5392;DHT22;2719;53.624;9.786;2023-01-29T06:30:32;4.10;99.90
5392;DHT22;2719;53.624;9.786;2023-01-29T06:32:59;4.20;99.90
5392;DHT22;2719;53.624;9.786;2023-01-29T06:35:27;4.20;99.90
5392;DHT22;2719;53.624;9.786;2023-01-29T06:37:55;4.20;99.90
5392;DHT22;2719;53.624;9.786;2023-01-29T06:40:22;4.00;99.90
5392;DHT22;2719;53.624;9.786;2023-01-29T06:42:48;4.10;99.90
5392;DHT22;2719;53.624;9.786;2023-01-29T06:45:16;4.00;99.90
5392;DHT22;2719;53.624;9.786;2023-01-29T06:47:43;4.00;99.90
5392;DHT22;2719;53.624;9.786;2023-01-29T06:50:10;4.00;99.90
5392;DHT22;2719;53.624;9.786;2023-01-29T06:52:37;3.90;99.90
5392;DHT22;2719;53.624;9.786;2023-01-29T06:55:04;4.00;99.90
5392;DHT22;2719;53.624;9.786;2023-01-29T06:57:31;4.00;99.90
5392;DHT22;2719;53.624;9.786;2023-01-29T06:59:58;4.00;99.90
5392;DHT22;2719;53.624;9.786;2023-01-29T07:02:26;3.90;99.90
5392;DHT22;2719;53.624;9.786;2023-01-29T07:04:52;3.90;99.90
5392;DHT22;2719;53.624;9.786;2023-01-29T07:07:19;3.90;99.90
5392;DHT22;2719;53.624;9.786;2023-01-29T07:09:46;3.90;99.90
5392;DHT22;2719;53.624;9.786;2023-01-29T07:12:12;3.90;99.90
5392;DHT22;2719;53.624;9.786;2023-01-29T07:14:39;3.70;99.90
5392;DHT22;2719;53.624;9.786;2023-01-29T07:17:06;3.70;99.90
5392;DHT22;2719;53.624;9.786;2023-01-29T07:19:33;3.80;99.90
5392;DHT22;2719;53.624;9.786;2023-01-29T07:22:00;3.70;99.90
5392;DHT22;2719;53.624;9.786;2023-01-29T07:24:28;3.70;99.90
5392;DHT22;2719;53.624;9.786;2023-01-29T07:26:54;3.60;99.90
5392;DHT22;2719;53.624;9.786;2023-01-29T07:29:21;3.60;99.90
5392;DHT22;2719;53.624;9.786;2023-01-29T07:31:48;3.60;99.90
5392;DHT22;2719;53.624;9.786;2023-01-29T07:34:15;3.60;99.90
5392;DHT22;2719;53.624;9.786;2023-01-29T07:36:42;3.60;99.90
5392;DHT22;2719;53.624;9.786;2023-01-29T07:39:09;3.70;99.90
5392;DHT22;2719;53.624;9.786;2023-01-29T07:41:36;3.60;99.90
5392;DHT22;2719;53.624;9.786;2023-01-29T07:44:03;3.70;99.90
5392;DHT22;2719;53.624;9.786;2023-01-29T07:46:29;3.60;99.90
5392;DHT22;2719;53.624;9.786;2023-01-29T07:48:57;3.60;99.90
5392;DHT22;2719;53.624;9.786;2023-01-29T07:51:23;3.60;99.90
5392;DHT22;2719;53.624;9.786;2023-01-29T07:53:51;3.60;99.90
5392;DHT22;2719;53.624;9.786;2023-01-29T07:56:18;3.60;99.90
5392;DHT22;2719;53.624;9.786;2023-01-29T07:58:44;3.50;99.90
5392;DHT22;2719;53.624;9.786;2023-01-29T08:01:11;3.50;99.90
5392;DHT22;2719;53.624;9.786;2023-01-29T08:03:38;3.50;99.90
5392;DHT22;2719;53.624;9.786;2023-01-29T08:06:05;3.50;99.90
5392;DHT22;2719;53.624;9.786;2023-01-29T08:08:31;3.50;99.90
5392;DHT22;2719;53.624;9.786;2023-01-29T08:11:01;3.50;99.90
5392;DHT22;2719;53.624;9.786;2023-01-29T08:13:27;3.50;99.90
5392;DHT22;2719;53.624;9.786;2023-01-29T08:15:58;3.60;99.90
5392;DHT22;2719;53.624;9.786;2023-01-29T08:18:25;3.50;99.90
5392;DHT22;2719;53.624;9.786;2023-01-29T08:20:51;3.60;99.90
5392;DHT22;2719;53.624;9.786;2023-01-29T08:23:18;3.70;99.90
5392;DHT22;2719;53.624;9.786;2023-01-29T08:25:45;3.70;99.90
5392;DHT22;2719;53.624;9.786;2023-01-29T08:28:13;3.70;99.90
5392;DHT22;2719;53.624;9.786;2023-01-29T08:30:40;3.70;99.90
5392;DHT22;2719;53.624;9.786;2023-01-29T08:33:08;3.70;99.90
5392;DHT22;2719;53.624;9.786;2023-01-29T08:35:35;3.70;99.90
5392;DHT22;2719;53.624;9.786;2023-01-29T08:38:03;3.70;99.90
5392;DHT22;2719;53.624;9.786;2023-01-29T08:40:31;3.80;99.90
5392;DHT22;2719;53.624;9.786;2023-01-29T08:42:58;3.80;99.90
5392;DHT22;2719;53.624;9.786;2023-01-29T08:45:26;3.90;99.90
5392;DHT22;2719;53.624;9.786;2023-01-29T08:47:53;3.80;99.90
5392;DHT22;2719;53.624;9.786;2023-01-29T08:50:19;3.90;99.90
5392;DHT22;2719;53.624;9.786;2023-01-29T08:52:46;3.90;99.90
5392;DHT22;2719;53.624;9.786;2023-01-29T08:55:13;3.90;99.90
5392;DHT22;2719;53.624;9.786;2023-01-29T08:57:39;4.00;99.90
5392;DHT22;2719;53.624;9.786;2023-01-29T09:00:07;3.90;99.90
5392;DHT22;2719;53.624;9.786;2023-01-29T09:02:36;3.90;99.90
5392;DHT22;2719;53.624;9.786;2023-01-29T09:05:03;3.90;99.90
5392;DHT22;2719;53.624;9.786;2023-01-29T09:07:30;3.90;99.90
5392;DHT22;2719;53.624;9.786;2023-01-29T09:09:57;4.00;99.90
5392;DHT22;2719;53.624;9.786;2023-01-29T09:12:24;4.00;99.90
5392;DHT22;2719;53.624;9.786;2023-01-29T09:14:50;4.00;99.90
5392;DHT22;2719;53.624;9.786;2023-01-29T09:17:17;4.00;99.90
5392;DHT22;2719;53.624;9.786;2023-01-29T09:19:45;4.00;99.90
5392;DHT22;2719;53.624;9.786;2023-01-29T09:22:12;4.00;99.90
5392;DHT22;2719;53.624;9.786;2023-01-29T09:24:38;4.00;99.90
5392;DHT22;2719;53.624;9.786;2023-01-29T09:27:05;4.00;99.90
5392;DHT22;2719;53.624;9.786;2023-01-29T09:29:32;4.00;99.90
5392;DHT22;2719;53.624;9.786;2023-01-29T09:31:58;4.00;99.90
5392;DHT22;2719;53.624;9.786;2023-01-29T09:34:25;4.00;99.90
5392;DHT22;2719;53.624;9.786;2023-01-29T09:36:53;4.00;99.90
5392;DHT22;2719;53.624;9.786;2023-01-29T09:39:19;3.90;99.90
5392;DHT22;2719;53.624;9.786;2023-01-29T09:41:52;4.10;99.90
5392;DHT22;2719;53.624;9.786;2023-01-29T09:44:29;4.00;99.90
5392;DHT22;2719;53.624;9.786;2023-01-29T09:47:01;4.00;99.90
5392;DHT22;2719;53.624;9.786;2023-01-29T09:49:31;4.00;99.90
5392;DHT22;2719;53.624;9.786;2023-01-29T09:52:06;4.10;99.90
5392;DHT22;2719;53.624;9.786;2023-01-29T09:54:45;4.00;99.90
5392;DHT22;2719;53.624;9.786;2023-01-29T09:57:18;4.10;99.90
5392;DHT22;2719;53.624;9.786;2023-01-29T09:59:45;4.10;99.90
5392;DHT22;2719;53.624;9.786;2023-01-29T10:02:21;4.10;99.90
5392;DHT22;2719;53.624;9.786;2023-01-29T10:05:05;4.10;99.90
5392;DHT22;2719;53.624;9.786;2023-01-29T10:07:53;4.10;99.90
5392;DHT22;2719;53.624;9.786;2023-01-29T10:10:30;4.00;99.90
5392;DHT22;2719;53.624;9.786;2023-01-29T10:13:09;4.00;99.90
5392;DHT22;2719;53.624;9.786;2023-01-29T10:15:51;4.00;99.90
5392;DHT22;2719;53.624;9.786;2023-01-29T10:18:43;4.10;99.90
5392;DHT22;2719;53.624;9.786;2023-01-29T10:21:27;4.10;99.90
5392;DHT22;2719;53.624;9.786;2023-01-29T10:24:04;4.10;99.90
5392;DHT22;2719;53.624;9.786;2023-01-29T10:26:34;4.10;99.90
5392;DHT22;2719;53.624;9.786;2023-01-29T10:29:06;4.10;99.90
5392;DHT22;2719;53.624;9.786;2023-01-29T10:31:35;4.10;99.90
5392;DHT22;2719;53.624;9.786;2023-01-29T10:34:09;4.10;99.90
5392;DHT22;2719;53.624;9.786;2023-01-29T10:36:40;4.10;99.90
5392;DHT22;2719;53.624;9.786;2023-01-29T10:39:14;4.00;99.90
5392;DHT22;2719;53.624;9.786;2023-01-29T10:41:58;4.00;99.90
5392;DHT22;2719;53.624;9.786;2023-01-29T10:44:36;4.00;99.90
5392;DHT22;2719;53.624;9.786;2023-01-29T10:47:16;4.10;99.90
5392;DHT22;2719;53.624;9.786;2023-01-29T10:50:17;4.10;99.90
5392;DHT22;2719;53.624;9.786;2023-01-29T10:53:02;4.10;99.90
5392;DHT22;2719;53.624;9.786;2023-01-29T10:55:42;4.10;99.90
5392;DHT22;2719;53.624;9.786;2023-01-29T10:58:18;4.00;99.90
5392;DHT22;2719;53.624;9.786;2023-01-29T11:00:48;4.00;99.90
5392;DHT22;2719;53.624;9.786;2023-01-29T11:03:16;4.00;99.90
5392;DHT22;2719;53.624;9.786;2023-01-29T11:05:47;4.10;99.90
5392;DHT22;2719;53.624;9.786;2023-01-29T11:08:20;4.10;99.90
5392;DHT22;2719;53.624;9.786;2023-01-29T11:10:53;4.00;99.90
5392;DHT22;2719;53.624;9.786;2023-01-29T11:13:30;4.10;99.90
5392;DHT22;2719;53.624;9.786;2023-01-29T11:15:57;4.10;99.90
5392;DHT22;2719;53.624;9.786;2023-01-29T11:18:24;4.10;99.90
5392;DHT22;2719;53.624;9.786;2023-01-29T11:20:59;4.10;99.90
5392;DHT22;2719;53.624;9.786;2023-01-29T11:23:28;4.10;99.90
5392;DHT22;2719;53.624;9.786;2023-01-29T11:25:57;4.10;99.90
5392;DHT22;2719;53.624;9.786;2023-01-29T11:28:35;4.10;99.90
5392;DHT22;2719;53.624;9.786;2023-01-29T11:31:02;4.10;99.90
5392;DHT22;2719;53.624;9.786;2023-01-29T11:33:30;4.10;99.90
5392;DHT22;2719;53.624;9.786;2023-01-29T11:35:57;4.10;99.90
5392;DHT22;2719;53.624;9.786;2023-01-29T11:38:25;4.20;99.90
5392;DHT22;2719;53.624;9.786;2023-01-29T11:40:53;4.20;99.90
5392;DHT22;2719;53.624;9.786;2023-01-29T11:43:31;4.20;99.90
5392;DHT22;2719;53.624;9.786;2023-01-29T11:46:00;4.20;99.90
5392;DHT22;2719;53.624;9.786;2023-01-29T11:48:34;4.30;99.90
5392;DHT22;2719;53.624;9.786;2023-01-29T11:51:05;4.20;99.90
5392;DHT22;2719;53.624;9.786;2023-01-29T11:53:37;4.30;99.90
5392;DHT22;2719;53.624;9.786;2023-01-29T11:56:14;4.40;99.90
5392;DHT22;2719;53.624;9.786;2023-01-29T11:58:44;4.30;99.90
5392;DHT22;2719;53.624;9.786;2023-01-29T12:01:12;4.40;99.90
5392;DHT22;2719;53.624;9.786;2023-01-29T12:03:43;4.30;99.90
5392;DHT22;2719;53.624;9.786;2023-01-29T12:06:17;4.30;99.90
5392;DHT22;2719;53.624;9.786;2023-01-29T12:08:43;4.30;99.90
5392;DHT22;2719;53.624;9.786;2023-01-29T12:11:27;4.30;99.90
5392;DHT22;2719;53.624;9.786;2023-01-29T12:13:58;4.30;99.90
5392;DHT22;2719;53.624;9.786;2023-01-29T12:16:28;4.40;99.90
5392;DHT22;2719;53.624;9.786;2023-01-29T12:19:04;4.40;99.90
5392;DHT22;2719;53.624;9.786;2023-01-29T12:21:37;4.40;99.90
5392;DHT22;2719;53.624;9.786;2023-01-29T12:24:14;4.40;99.90
5392;DHT22;2719;53.624;9.786;2023-01-29T12:26:48;4.50;99.90
5392;DHT22;2719;53.624;9.786;2023-01-29T12:29:24;4.40;99.90
5392;DHT22;2719;53.624;9.786;2023-01-29T12:32:00;4.50;99.90
5392;DHT22;2719;53.624;9.786;2023-01-29T12:34:36;4.40;99.90
5392;DHT22;2719;53.624;9.786;2023-01-29T12:37:16;4.40;99.90
5392;DHT22;2719;53.624;9.786;2023-01-29T12:39:44;4.40;99.90
5392;DHT22;2719;53.624;9.786;2023-01-29T12:42:15;4.40;99.90
5392;DHT22;2719;53.624;9.786;2023-01-29T12:44:46;4.40;99.90
5392;DHT22;2719;53.624;9.786;2023-01-29T12:47:18;4.40;99.90
5392;DHT22;2719;53.624;9.786;2023-01-29T12:49:50;4.40;99.90
5392;DHT22;2719;53.624;9.786;2023-01-29T12:52:22;4.30;99.90
5392;DHT22;2719;53.624;9.786;2023-01-29T12:54:52;4.40;99.90
5392;DHT22;2719;53.624;9.786;2023-01-29T12:57:22;4.40;99.90
5392;DHT22;2719;53.624;9.786;2023-01-29T12:59:53;4.50;99.90
5392;DHT22;2719;53.624;9.786;2023-01-29T13:02:30;4.40;99.90
5392;DHT22;2719;53.624;9.786;2023-01-29T13:05:00;4.40;99.90
5392;DHT22;2719;53.624;9.786;2023-01-29T13:07:31;4.40;99.90
5392;DHT22;2719;53.624;9.786;2023-01-29T13:10:04;4.40;99.90
5392;DHT22;2719;53.624;9.786;2023-01-29T13:12:33;4.40;99.90
5392;DHT22;2719;53.624;9.786;2023-01-29T13:15:05;4.50;99.90
5392;DHT22;2719;53.624;9.786;2023-01-29T13:17:35;4.40;99.90
5392;DHT22;2719;53.624;9.786;2023-01-29T13:20:10;4.40;99.90
5392;DHT22;2719;53.624;9.786;2023-01-29T13:22:39;4.40;99.90
5392;DHT22;2719;53.624;9.786;2023-01-29T13:25:13;4.50;99.90
5392;DHT22;2719;53.624;9.786;2023-01-29T13:27:41;4.50;99.90
5392;DHT22;2719;53.624;9.786;2023-01-29T13:30:23;4.50;99.90
5392;DHT22;2719;53.624;9.786;2023-01-29T13:32:50;4.50;99.90
5392;DHT22;2719;53.624;9.786;2023-01-29T13:35:20;4.50;99.90
5392;DHT22;2719;53.624;9.786;2023-01-29T13:37:50;4.50;99.90
5392;DHT22;2719;53.624;9.786;2023-01-29T13:40:20;4.50;99.90
5392;DHT22;2719;53.624;9.786;2023-01-29T13:42:49;4.50;99.90
5392;DHT22;2719;53.624;9.786;2023-01-29T13:45:21;4.50;99.90
5392;DHT22;2719;53.624;9.786;2023-01-29T13:47:50;4.50;99.90
5392;DHT22;2719;53.624;9.786;2023-01-29T13:50:20;4.50;99.90
5392;DHT22;2719;53.624;9.786;2023-01-29T13:52:54;4.60;99.90
5392;DHT22;2719;53.624;9.786;2023-01-29T13:55:26;4.60;99.90
5392;DHT22;2719;53.624;9.786;2023-01-29T13:57:56;4.50;99.90
5392;DHT22;2719;53.624;9.786;2023-01-29T14:00:58;4.50;99.90
5392;DHT22;2719;53.624;9.786;2023-01-29T14:03:53;4.50;99.90
5392;DHT22;2719;53.624;9.786;2023-01-29T14:06:47;4.60;99.90
5392;DHT22;2719;53.624;9.786;2023-01-29T14:12:37;4.50;99.90
5392;DHT22;2719;53.624;9.786;2023-01-29T14:15:22;4.50;99.90
5392;DHT22;2719;53.624;9.786;2023-01-29T14:18:11;4.50;99.90
5392;DHT22;2719;53.624;9.786;2023-01-29T14:20:41;4.50;99.90
5392;DHT22;2719;53.624;9.786;2023-01-29T14:23:22;4.50;99.90
5392;DHT22;2719;53.624;9.786;2023-01-29T14:25:49;4.50;99.90
5392;DHT22;2719;53.624;9.786;2023-01-29T14:28:20;4.50;99.90
5392;DHT22;2719;53.624;9.786;2023-01-29T14:30:48;4.50;99.90
5392;DHT22;2719;53.624;9.786;2023-01-29T14:33:24;4.50;99.90
5392;DHT22;2719;53.624;9.786;2023-01-29T14:35:52;4.50;99.90
5392;DHT22;2719;53.624;9.786;2023-01-29T14:38:22;4.40;99.90
5392;DHT22;2719;53.624;9.786;2023-01-29T14:41:02;4.40;99.90
5392;DHT22;2719;53.624;9.786;2023-01-29T14:43:30;4.40;99.90
5392;DHT22;2719;53.624;9.786;2023-01-29T14:49:05;4.50;99.90
5392;DHT22;2719;53.624;9.786;2023-01-29T14:51:35;4.40;99.90
5392;DHT22;2719;53.624;9.786;2023-01-29T14:54:05;4.40;99.90
5392;DHT22;2719;53.624;9.786;2023-01-29T14:56:42;4.50;99.90
5392;DHT22;2719;53.624;9.786;2023-01-29T14:59:16;4.50;99.90
5392;DHT22;2719;53.624;9.786;2023-01-29T15:01:47;4.50;99.90
5392;DHT22;2719;53.624;9.786;2023-01-29T15:04:21;4.40;99.90
5392;DHT22;2719;53.624;9.786;2023-01-29T15:06:54;4.40;99.90
5392;DHT22;2719;53.624;9.786;2023-01-29T15:09:30;4.50;99.90
5392;DHT22;2719;53.624;9.786;2023-01-29T15:12:04;4.40;99.90
5392;DHT22;2719;53.624;9.786;2023-01-29T15:14:35;4.40;99.90
5392;DHT22;2719;53.624;9.786;2023-01-29T15:17:19;4.50;99.90
5392;DHT22;2719;53.624;9.786;2023-01-29T15:19:49;4.40;99.90
5392;DHT22;2719;53.624;9.786;2023-01-29T15:22:17;4.40;99.90
5392;DHT22;2719;53.624;9.786;2023-01-29T15:24:46;4.40;99.90
5392;DHT22;2719;53.624;9.786;2023-01-29T15:27:15;4.50;99.90
5392;DHT22;2719;53.624;9.786;2023-01-29T15:29:45;4.40;99.90
5392;DHT22;2719;53.624;9.786;2023-01-29T15:32:16;4.40;99.90
5392;DHT22;2719;53.624;9.786;2023-01-29T15:34:45;4.40;99.90
5392;DHT22;2719;53.624;9.786;2023-01-29T15:37:27;4.30;99.90
5392;DHT22;2719;53.624;9.786;2023-01-29T15:39:55;4.40;99.90
5392;DHT22;2719;53.624;9.786;2023-01-29T15:42:22;4.30;99.90
5392;DHT22;2719;53.624;9.786;2023-01-29T15:44:51;4.30;99.90
5392;DHT22;2719;53.624;9.786;2023-01-29T15:47:20;4.30;99.90
5392;DHT22;2719;53.624;9.786;2023-01-29T15:49:49;4.20;99.90
5392;DHT22;2719;53.624;9.786;2023-01-29T15:52:17;4.30;99.90
5392;DHT22;2719;53.624;9.786;2023-01-29T15:54:47;4.30;99.90
5392;DHT22;2719;53.624;9.786;2023-01-29T15:57:20;4.30;99.90
5392;DHT22;2719;53.624;9.786;2023-01-29T15:59:48;4.30;99.90
5392;DHT22;2719;53.624;9.786;2023-01-29T16:02:37;4.30;99.90
5392;DHT22;2719;53.624;9.786;2023-01-29T16:05:09;4.20;99.90
5392;DHT22;2719;53.624;9.786;2023-01-29T16:07:36;4.20;99.90
5392;DHT22;2719;53.624;9.786;2023-01-29T16:10:05;4.20;99.90
5392;DHT22;2719;53.624;9.786;2023-01-29T16:12:33;4.20;99.90
5392;DHT22;2719;53.624;9.786;2023-01-29T16:15:02;4.30;99.90
5392;DHT22;2719;53.624;9.786;2023-01-29T16:17:30;4.20;99.90
5392;DHT22;2719;53.624;9.786;2023-01-29T16:20:01;4.30;99.90
5392;DHT22;2719;53.624;9.786;2023-01-29T16:22:30;4.20;99.90
5392;DHT22;2719;53.624;9.786;2023-01-29T16:25:01;4.20;99.90
5392;DHT22;2719;53.624;9.786;2023-01-29T16:27:29;4.10;99.90
5392;DHT22;2719;53.624;9.786;2023-01-29T16:29:57;4.10;99.90
5392;DHT22;2719;53.624;9.786;2023-01-29T16:32:23;4.10;99.90
5392;DHT22;2719;53.624;9.786;2023-01-29T16:34:55;4.10;99.90
5392;DHT22;2719;53.624;9.786;2023-01-29T16:37:25;4.10;99.90
5392;DHT22;2719;53.624;9.786;2023-01-29T16:39:52;4.10;99.90
5392;DHT22;2719;53.624;9.786;2023-01-29T16:42:25;4.20;99.90
5392;DHT22;2719;53.624;9.786;2023-01-29T16:44:58;4.10;99.90
5392;DHT22;2719;53.624;9.786;2023-01-29T16:47:28;4.10;99.90
5392;DHT22;2719;53.624;9.786;2023-01-29T16:49:57;4.10;99.90